Isle of North Uist, United Kingdom
Current Conditions -  °F | °C
As of 9:20 PM on Tuesday 21 Oct 2014 (Local Time) from EGPL Reporting Station
Few Clouds Few Clouds  
Wind Chill: 40°   Ceiling: Unl
Heat Index: 48°   Visibility: 6mi
Dew Point: 43°   Wind: 28mph
Humidity: 82%   Direction: 290°WNW
Pressure: 29.91"   Gusts: NA
Location:  57.6°N, 7.16°W
Report Text: EGPL 212020Z AUTO 29024KT 9999 FEW029/// 09/06 Q1013
Loading
Personal Weather Stations






























Interactive Weather Map
Tropical Storm Tracking
New forecast layout! Learn more

10-Day Weather Forecast

Advertisements
Track Severe Weather on mobile